Time;durP1;ratioP1;P1;durP2;ratioP2;P2;SDS_P1;SDS_P2;PMS_P1;PMS_P2;Temp;Humidity;BMP_temperature;BMP_pressure;BME280_temperature;BME280_humidity;BME280_pressure;Samples;Min_cycle;Max_cycle;Signal;HPM_P1;HPM_P2
2021/09/24 00:01:41;;;;;;;0.10;0.10;;;15.20;95.30;;;;;;4992023;28;20018;-76
2021/09/24 00:04:07;;;;;;;0.32;0.32;;;15.10;95.30;;;;;;4993169;28;20018;-77
2021/09/24 00:06:32;;;;;;;0.10;0.10;;;15.00;95.30;;;;;;4993046;28;20422;-79
2021/09/24 00:08:58;;;;;;;0.10;0.10;;;15.10;95.70;;;;;;4993312;28;20118;-76
2021/09/24 00:11:24;;;;;;;0.10;0.10;;;15.20;95.50;;;;;;4993131;28;20031;-77
2021/09/24 00:13:49;;;;;;;0.10;0.10;;;15.30;95.10;;;;;;5062961;23;20132;-92
2021/09/24 00:16:15;;;;;;;0.10;0.10;;;15.20;95.20;;;;;;5000009;28;20023;-92
2021/09/24 00:18:41;;;;;;;0.13;0.13;;;15.20;94.60;;;;;;4999907;28;20026;-92
2021/09/24 00:21:07;;;;;;;0.20;0.20;;;15.20;95.30;;;;;;4999468;28;20033;-91
2021/09/24 00:23:32;;;;;;;0.10;0.10;;;15.00;95.20;;;;;;5000079;28;20402;-92
2021/09/24 00:25:58;;;;;;;0.10;0.10;;;14.90;95.30;;;;;;4999441;28;20714;-92
2021/09/24 00:28:24;;;;;;;0.10;0.10;;;14.90;96.00;;;;;;4999048;28;20049;-91
2021/09/24 00:30:49;;;;;;;0.10;0.10;;;15.00;95.70;;;;;;4999427;28;20105;-92
2021/09/24 00:33:15;;;;;;;0.10;0.10;;;15.10;95.40;;;;;;4999326;28;20032;-92
2021/09/24 00:35:41;;;;;;;0.20;0.20;;;15.00;95.30;;;;;;4999624;28;20037;-92
2021/09/24 00:38:07;;;;;;;0.10;0.10;;;14.80;95.50;;;;;;4999281;28;20125;-92
2021/09/24 00:40:34;;;;;;;0.10;0.10;;;14.60;96.10;;;;;;4999407;28;20076;-92
2021/09/24 00:43:02;;;;;;;0.10;0.10;;;14.60;96.80;;;;;;4999188;28;20070;-91
2021/09/24 00:45:27;;;;;;;0.10;0.10;;;14.70;96.80;;;;;;4999422;28;20026;-92
2021/09/24 00:47:53;;;;;;;0.10;0.10;;;14.70;96.10;;;;;;4999486;28;20028;-91
2021/09/24 00:50:19;;;;;;;0.10;0.10;;;14.80;96.10;;;;;;4999133;28;20379;-92
2021/09/24 00:52:47;;;;;;;0.20;0.20;;;14.90;96.30;;;;;;4999186;28;20033;-92
2021/09/24 00:55:13;;;;;;;0.20;0.20;;;14.80;96.10;;;;;;4999549;28;20021;-92
2021/09/24 00:57:39;;;;;;;0.20;0.20;;;14.90;96.10;;;;;;5002368;28;20048;-92
2021/09/24 01:00:06;;;;;;;0.20;0.20;;;15.00;96.10;;;;;;5003074;28;20036;-92
2021/09/24 01:02:32;;;;;;;0.20;0.20;;;15.00;95.80;;;;;;5003468;28;20032;-92
2021/09/24 01:04:58;;;;;;;0.10;0.10;;;15.00;95.40;;;;;;5003355;28;20029;-92
2021/09/24 01:07:24;;;;;;;0.10;0.10;;;15.10;95.50;;;;;;5004181;28;20034;-92
2021/09/24 01:09:50;;;;;;;0.38;0.38;;;15.10;94.80;;;;;;5012362;28;20482;-92
2021/09/24 01:12:15;;;;;;;0.45;0.45;;;14.90;95.00;;;;;;5023581;28;20021;-92
2021/09/24 01:14:41;;;;;;;0.95;0.90;;;14.80;95.70;;;;;;5026172;28;20021;-92
2021/09/24 01:17:07;;;;;;;0.10;0.10;;;14.50;96.10;;;;;;5013630;28;20057;-91
2021/09/24 01:19:33;;;;;;;0.10;0.10;;;14.30;96.60;;;;;;5003373;28;20076;-92
2021/09/24 01:21:59;;;;;;;0.20;0.20;;;14.20;97.50;;;;;;5003619;28;20589;-92
2021/09/24 01:24:25;;;;;;;0.10;0.10;;;14.40;97.90;;;;;;5003017;28;20026;-92
2021/09/24 01:26:54;;;;;;;0.10;0.10;;;14.40;97.10;;;;;;5002873;28;20029;-92
2021/09/24 01:29:22;;;;;;;0.20;0.20;;;14.20;97.50;;;;;;5002679;28;20029;-92
2021/09/24 01:31:48;;;;;;;0.20;0.20;;;14.00;98.40;;;;;;5002627;28;20107;-92
2021/09/24 01:34:14;;;;;;;0.15;0.15;;;13.90;98.70;;;;;;5002811;28;20057;-92
2021/09/24 01:36:39;;;;;;;0.20;0.20;;;14.10;99.00;;;;;;5002870;28;20040;-91
2021/09/24 01:39:10;;;;;;;0.20;0.20;;;14.10;98.10;;;;;;5002840;28;20057;-92
2021/09/24 01:41:40;;;;;;;0.13;0.13;;;14.00;98.60;;;;;;5002468;28;20032;-91
2021/09/24 01:44:06;;;;;;;0.47;0.47;;;13.90;98.80;;;;;;5002292;28;20602;-91
2021/09/24 01:46:35;;;;;;;0.10;0.10;;;13.70;99.30;;;;;;5002638;28;20049;-92
2021/09/24 01:49:01;;;;;;;0.10;0.10;;;13.80;99.90;;;;;;5002529;28;20018;-92
2021/09/24 01:51:26;;;;;;;0.10;0.10;;;13.90;99.40;;;;;;5002635;28;20031;-91
2021/09/24 01:53:52;;;;;;;0.10;0.10;;;13.80;99.10;;;;;;5001983;28;20030;-91
2021/09/24 01:56:21;;;;;;;0.20;0.20;;;13.70;99.90;;;;;;5002263;28;20025;-92
2021/09/24 01:58:47;;;;;;;0.20;0.20;;;13.70;99.90;;;;;;5002278;28;20406;-92
2021/09/24 02:01:13;;;;;;;0.20;0.20;;;13.60;99.90;;;;;;5002326;28;20040;-92
2021/09/24 02:03:38;;;;;;;0.20;0.20;;;13.70;99.90;;;;;;5002154;28;20164;-92
2021/09/24 02:06:04;;;;;;;0.20;0.20;;;13.70;99.90;;;;;;5002287;28;20022;-91
2021/09/24 02:08:30;;;;;;;0.20;0.20;;;13.80;99.90;;;;;;5002050;28;20071;-92
2021/09/24 02:10:55;;;;;;;0.20;0.20;;;13.70;99.90;;;;;;5001951;28;20037;-92
2021/09/24 02:13:21;;;;;;;0.10;0.10;;;13.60;99.90;;;;;;5002064;28;20034;-91
2021/09/24 02:15:47;;;;;;;0.20;0.20;;;13.60;99.90;;;;;;5001820;28;20022;-91
2021/09/24 02:18:12;;;;;;;0.10;0.10;;;13.70;99.90;;;;;;5002118;28;20029;-92
2021/09/24 02:20:38;;;;;;;0.20;0.20;;;13.80;99.90;;;;;;5002052;28;20026;-92
2021/09/24 02:23:04;;;;;;;0.20;0.20;;;13.90;99.90;;;;;;5001951;28;20388;-92
2021/09/24 02:25:30;;;;;;;0.10;0.10;;;13.80;99.90;;;;;;5001646;28;20017;-92
2021/09/24 02:27:56;;;;;;;0.20;0.20;;;13.90;99.90;;;;;;5001560;28;20432;-92
2021/09/24 02:30:21;;;;;;;0.68;0.55;;;13.80;99.90;;;;;;5001513;28;20025;-91
2021/09/24 02:32:47;;;;;;;0.10;0.10;;;13.70;99.90;;;;;;5001656;28;20406;-92
2021/09/24 02:35:13;;;;;;;1.02;0.95;;;13.50;99.90;;;;;;5001922;28;20036;-92
2021/09/24 02:37:38;;;;;;;1.98;0.80;;;13.30;99.90;;;;;;5001979;28;20022;-91
2021/09/24 02:40:05;;;;;;;0.90;0.90;;;13.10;99.90;;;;;;5002242;28;20163;-91
2021/09/24 02:42:31;;;;;;;0.30;0.30;;;12.80;99.90;;;;;;5002311;28;20028;-91
2021/09/24 02:44:56;;;;;;;1.27;1.23;;;12.60;99.90;;;;;;5001803;28;20017;-91
2021/09/24 02:47:22;;;;;;;0.85;0.85;;;12.60;99.90;;;;;;5001554;28;20033;-92
2021/09/24 02:49:48;;;;;;;0.90;0.90;;;12.50;99.90;;;;;;5001727;28;20033;-91
2021/09/24 02:52:14;;;;;;;1.15;1.02;;;12.30;99.90;;;;;;5001479;28;20041;-91
2021/09/24 02:54:40;;;;;;;0.20;0.20;;;12.20;99.90;;;;;;5001947;28;20026;-92
2021/09/24 02:57:05;;;;;;;0.13;0.13;;;12.20;99.90;;;;;;5001315;28;20021;-92
2021/09/24 02:59:31;;;;;;;0.20;0.20;;;12.40;99.90;;;;;;5001563;28;20029;-91
2021/09/24 03:01:58;;;;;;;0.20;0.20;;;12.60;99.90;;;;;;5001587;28;20029;-91
2021/09/24 03:04:24;;;;;;;0.20;0.20;;;12.80;99.90;;;;;;5000989;28;20048;-92
2021/09/24 03:06:50;;;;;;;0.10;0.10;;;12.80;99.90;;;;;;5001266;28;20025;-92
2021/09/24 03:09:16;;;;;;;0.13;0.13;;;13.10;99.90;;;;;;5001014;28;20091;-92
2021/09/24 03:11:42;;;;;;;0.10;0.10;;;13.10;99.90;;;;;;5000871;28;20032;-92
2021/09/24 03:14:08;;;;;;;0.10;0.10;;;13.20;99.90;;;;;;5000843;28;20036;-92
2021/09/24 03:16:36;;;;;;;0.20;0.20;;;13.20;99.90;;;;;;5001342;28;20029;-91
2021/09/24 03:19:02;;;;;;;0.10;0.10;;;13.30;99.90;;;;;;5000898;28;20029;-91
2021/09/24 03:21:28;;;;;;;0.10;0.10;;;13.40;99.90;;;;;;5001095;28;20497;-92
2021/09/24 03:23:54;;;;;;;0.32;0.32;;;13.40;99.90;;;;;;5001221;28;20029;-91
2021/09/24 03:26:20;;;;;;;0.20;0.20;;;13.30;99.90;;;;;;5000874;28;20032;-91
2021/09/24 03:28:46;;;;;;;0.10;0.10;;;13.20;99.90;;;;;;5000938;28;20021;-92
2021/09/24 03:31:11;;;;;;;0.20;0.20;;;13.20;99.90;;;;;;5001519;28;20113;-91
2021/09/24 03:33:37;;;;;;;0.20;0.20;;;13.20;99.90;;;;;;5001504;28;20057;-92
2021/09/24 03:36:03;;;;;;;0.10;0.10;;;13.10;99.90;;;;;;5000818;28;20497;-92
2021/09/24 03:38:29;;;;;;;0.75;0.55;;;13.00;99.90;;;;;;5001407;28;20044;-91
2021/09/24 03:40:55;;;;;;;0.10;0.10;;;12.90;99.90;;;;;;5001156;28;20063;-91
2021/09/24 03:43:20;;;;;;;0.20;0.20;;;12.80;99.90;;;;;;5001189;28;20033;-91
2021/09/24 03:45:46;;;;;;;0.20;0.20;;;12.80;99.90;;;;;;5017267;28;20022;-91
2021/09/24 03:48:12;;;;;;;0.10;0.10;;;12.90;99.90;;;;;;5000395;28;20021;-91
2021/09/24 03:50:38;;;;;;;1.65;0.85;;;13.00;99.90;;;;;;5000936;28;20022;-91
2021/09/24 03:53:04;;;;;;;0.65;0.65;;;13.10;99.90;;;;;;5000698;28;20029;-91
2021/09/24 03:55:30;;;;;;;0.82;0.55;;;12.80;99.90;;;;;;5000326;28;20032;-92
2021/09/24 03:57:55;;;;;;;0.13;0.13;;;12.50;99.90;;;;;;5000553;28;20033;-92
2021/09/24 04:00:21;;;;;;;0.93;0.90;;;12.50;99.90;;;;;;5000114;28;20021;-91
2021/09/24 04:02:47;;;;;;;0.20;0.20;;;12.30;99.90;;;;;;5000394;28;20049;-91
2021/09/24 04:05:13;;;;;;;0.10;0.10;;;12.30;99.90;;;;;;5000335;28;20406;-91
2021/09/24 04:07:38;;;;;;;0.20;0.20;;;12.20;99.90;;;;;;5000231;28;20025;-91
2021/09/24 04:10:05;;;;;;;0.20;0.20;;;12.10;99.90;;;;;;5000353;28;20053;-91
2021/09/24 04:12:31;;;;;;;0.10;0.10;;;12.00;99.90;;;;;;5000110;28;20031;-92
2021/09/24 04:14:57;;;;;;;0.20;0.20;;;12.10;99.90;;;;;;4999947;28;20025;-91
2021/09/24 04:17:24;;;;;;;0.20;0.20;;;12.10;99.90;;;;;;5000277;28;20471;-92
2021/09/24 04:19:50;;;;;;;0.10;0.10;;;12.10;99.90;;;;;;5000117;28;20514;-91
2021/09/24 04:22:15;;;;;;;0.20;0.20;;;12.00;99.90;;;;;;5000603;28;20029;-91
2021/09/24 04:24:41;;;;;;;0.20;0.20;;;12.10;99.90;;;;;;5000490;28;20029;-91
2021/09/24 04:27:07;;;;;;;0.13;0.13;;;12.10;99.90;;;;;;5000284;28;20025;-91
2021/09/24 04:29:33;;;;;;;0.45;0.45;;;12.00;99.90;;;;;;5000156;28;20037;-91
2021/09/24 04:31:59;;;;;;;0.73;0.65;;;12.00;99.90;;;;;;4999643;28;20038;-91
2021/09/24 04:34:25;;;;;;;0.20;0.20;;;12.00;99.90;;;;;;5000650;28;20017;-92
2021/09/24 04:36:50;;;;;;;1.15;1.15;;;12.10;99.90;;;;;;5000035;28;20037;-91
2021/09/24 04:39:16;;;;;;;0.15;0.15;;;12.20;99.90;;;;;;5000081;28;20060;-92
2021/09/24 04:41:42;;;;;;;0.20;0.20;;;12.30;99.90;;;;;;5000336;28;20021;-91
2021/09/24 04:44:08;;;;;;;0.60;0.60;;;12.30;99.90;;;;;;5000184;28;20025;-91
2021/09/24 04:46:34;;;;;;;0.80;0.50;;;12.30;99.90;;;;;;4999603;28;20049;-91
2021/09/24 04:48:59;;;;;;;0.15;0.15;;;12.40;99.90;;;;;;4999618;28;20034;-92
2021/09/24 04:51:25;;;;;;;0.10;0.10;;;12.40;99.90;;;;;;4999714;28;20026;-91
2021/09/24 04:53:51;;;;;;;0.10;0.10;;;12.60;99.90;;;;;;5000005;28;20064;-92
2021/09/24 04:56:17;;;;;;;0.20;0.20;;;12.70;99.90;;;;;;5000946;28;20506;-91
2021/09/24 04:58:43;;;;;;;1.60;0.85;;;12.70;99.90;;;;;;4999917;28;20040;-91
2021/09/24 05:01:09;;;;;;;0.17;0.17;;;12.80;99.90;;;;;;4999781;28;20029;-91
2021/09/24 05:03:35;;;;;;;0.25;0.25;;;12.70;99.90;;;;;;5000271;28;20036;-92
2021/09/24 05:06:01;;;;;;;0.30;0.30;;;12.80;99.90;;;;;;4999581;28;20474;-91
2021/09/24 05:08:26;;;;;;;0.98;0.47;;;12.60;99.90;;;;;;5000115;28;20025;-91
2021/09/24 05:10:52;;;;;;;0.10;0.10;;;12.60;99.90;;;;;;5000835;28;20417;-92
2021/09/24 05:13:18;;;;;;;0.20;0.20;;;12.50;99.90;;;;;;5000163;28;20033;-91
2021/09/24 05:15:44;;;;;;;0.45;0.45;;;12.50;99.90;;;;;;5000004;28;20028;-92
2021/09/24 05:18:09;;;;;;;0.10;0.10;;;12.60;99.90;;;;;;5000476;28;20026;-92
2021/09/24 05:20:35;;;;;;;0.10;0.10;;;12.50;99.90;;;;;;5001203;28;20033;-91
2021/09/24 05:23:01;;;;;;;1.10;1.10;;;12.60;99.90;;;;;;5000374;28;20025;-91
2021/09/24 05:25:27;;;;;;;0.30;0.30;;;12.50;99.90;;;;;;5001304;28;20060;-92
2021/09/24 05:27:53;;;;;;;2.03;0.60;;;12.50;99.90;;;;;;5000549;28;20025;-91
2021/09/24 05:30:19;;;;;;;0.32;0.32;;;12.40;99.90;;;;;;5004473;28;20053;-91
2021/09/24 05:32:45;;;;;;;1.75;1.38;;;12.50;99.90;;;;;;4993351;28;20025;-91
2021/09/24 05:35:12;;;;;;;0.20;0.20;;;12.50;99.90;;;;;;4993831;28;20025;-91
2021/09/24 05:37:42;;;;;;;0.30;0.30;;;12.60;99.90;;;;;;4982076;28;20045;-91
2021/09/24 05:40:08;;;;;;;0.20;0.20;;;12.80;99.90;;;;;;4987520;28;20026;-91
2021/09/24 05:42:34;;;;;;;0.20;0.20;;;13.00;99.90;;;;;;4986448;28;20032;-91
2021/09/24 05:45:16;;;;;;;0.17;0.17;;;13.10;99.90;;;;;;4983585;28;20050;-91
2021/09/24 05:47:42;;;;;;;;;;;13.20;99.90;;;;;;4984066;28;20029;-91
2021/09/24 05:50:12;;;;;;;0.70;0.57;;;13.20;99.90;;;;;;4994859;28;19909;-92
2021/09/24 05:52:47;;;;;;;0.10;0.10;;;13.30;99.90;;;;;;5004382;28;20021;-91
2021/09/24 05:55:14;;;;;;;0.20;0.20;;;13.40;99.90;;;;;;5004050;28;20041;-92
2021/09/24 05:57:40;;;;;;;0.10;0.10;;;13.40;99.90;;;;;;5004561;28;20505;-92
2021/09/24 06:00:08;;;;;;;0.10;0.10;;;13.40;99.90;;;;;;5004090;28;20471;-92
2021/09/24 06:02:34;;;;;;;0.10;0.10;;;13.60;99.90;;;;;;5004190;28;20090;-92
2021/09/24 06:05:00;;;;;;;4.63;3.85;;;13.70;99.90;;;;;;5004574;28;20053;-91
2021/09/24 06:07:26;;;;;;;0.20;0.20;;;13.80;99.90;;;;;;5008150;28;20018;-92
2021/09/24 06:09:52;;;;;;;0.85;0.50;;;13.80;99.90;;;;;;5009022;28;20033;-92
2021/09/24 06:14:49;;;;;;;0.20;0.20;;;13.70;99.90;;;;;;4977041;28;20035;-74
2021/09/24 06:17:15;;;;;;;0.20;0.20;;;13.90;99.90;;;;;;4987108;28;20026;-74
2021/09/24 06:19:41;;;;;;;0.10;0.10;;;14.00;99.90;;;;;;4964994;28;20030;-74
2021/09/24 06:22:08;;;;;;;0.10;0.10;;;14.10;99.90;;;;;;4950787;28;20483;-74
2021/09/24 06:24:34;;;;;;;0.17;0.17;;;14.10;99.90;;;;;;4960399;28;20027;-74
2021/09/24 06:26:59;;;;;;;0.13;0.13;;;14.10;99.90;;;;;;4961797;28;20074;-74
2021/09/24 06:29:25;;;;;;;0.17;0.17;;;14.20;99.90;;;;;;4956728;28;20031;-74
2021/09/24 06:31:51;;;;;;;0.10;0.10;;;14.30;99.90;;;;;;4968810;28;20094;-75
2021/09/24 06:34:18;;;;;;;0.10;0.10;;;14.50;99.90;;;;;;4965077;28;20073;-75
2021/09/24 06:36:44;;;;;;;0.10;0.10;;;14.50;99.90;;;;;;4960868;28;20110;-74
2021/09/24 06:39:09;;;;;;;0.20;0.20;;;14.60;99.90;;;;;;4955442;28;20054;-74
2021/09/24 06:41:35;;;;;;;0.10;0.10;;;14.70;99.90;;;;;;4961432;28;20034;-74
2021/09/24 06:44:01;;;;;;;0.20;0.20;;;14.80;99.90;;;;;;4946032;28;20054;-75
2021/09/24 06:46:27;;;;;;;7.93;1.63;;;14.90;99.90;;;;;;4960706;28;20031;-74
2021/09/24 06:48:52;;;;;;;0.65;0.50;;;14.80;99.90;;;;;;4951745;28;20511;-75
2021/09/24 06:51:18;;;;;;;0.88;0.57;;;14.70;99.90;;;;;;4959984;28;20027;-74
2021/09/24 06:53:44;;;;;;;2.20;1.25;;;14.60;99.90;;;;;;4937733;29;20475;-74
2021/09/24 06:56:10;;;;;;;3.45;1.77;;;14.50;99.90;;;;;;4962403;28;20046;-74
2021/09/24 06:58:36;;;;;;;2.40;1.50;;;14.40;99.90;;;;;;4964578;28;20054;-74
2021/09/24 07:01:02;;;;;;;1.98;1.30;;;14.40;99.90;;;;;;4971195;28;20480;-74
2021/09/24 07:03:28;;;;;;;0.10;0.10;;;14.50;99.90;;;;;;4959050;28;20023;-74
2021/09/24 07:05:53;;;;;;;0.95;0.90;;;14.70;99.90;;;;;;4958618;28;20038;-74
2021/09/24 07:08:19;;;;;;;0.63;0.63;;;14.80;99.90;;;;;;4958593;28;20479;-74
2021/09/24 07:10:45;;;;;;;2.42;1.27;;;14.90;99.90;;;;;;4958584;28;20502;-74
2021/09/24 07:13:12;;;;;;;3.35;1.38;;;14.90;99.90;;;;;;4967058;28;20039;-74
2021/09/24 07:15:43;;;;;;;3.03;2.05;;;14.80;99.90;;;;;;4964727;28;20023;-74
2021/09/24 07:18:09;;;;;;;1.20;0.82;;;14.70;99.90;;;;;;4963097;28;20515;-74
2021/09/24 07:20:35;;;;;;;1.40;1.17;;;14.70;99.90;;;;;;4959670;28;20023;-74
2021/09/24 07:23:01;;;;;;;0.57;0.57;;;14.80;99.90;;;;;;4949127;28;20030;-74
2021/09/24 07:25:27;;;;;;;3.85;2.13;;;15.00;99.90;;;;;;4948299;28;20027;-74
2021/09/24 07:27:52;;;;;;;0.10;0.10;;;15.10;99.90;;;;;;4941616;28;20019;-75
2021/09/24 07:30:18;;;;;;;0.10;0.10;;;15.10;99.90;;;;;;4928115;28;20509;-74
2021/09/24 07:32:44;;;;;;;0.50;0.50;;;15.20;99.90;;;;;;4955780;28;20031;-75
2021/09/24 07:35:10;;;;;;;1.75;1.17;;;15.50;99.90;;;;;;4945375;29;20439;-75
2021/09/24 07:37:36;;;;;;;0.10;0.10;;;15.60;99.90;;;;;;4944906;28;20033;-75
2021/09/24 07:40:03;;;;;;;0.17;0.17;;;15.60;99.90;;;;;;4967275;28;20427;-75
2021/09/24 07:42:29;;;;;;;0.10;0.10;;;15.50;99.90;;;;;;4958203;28;20055;-75
2021/09/24 07:44:54;;;;;;;3.45;2.17;;;15.60;99.90;;;;;;4940490;28;20031;-75
2021/09/24 07:47:20;;;;;;;0.20;0.20;;;15.70;99.90;;;;;;4943192;28;20133;-75
2021/09/24 07:49:47;;;;;;;0.08;0.08;;;15.70;99.90;;;;;;4951247;28;20027;-75
2021/09/24 07:52:14;;;;;;;1.38;1.27;;;15.70;99.90;;;;;;4945475;28;20038;-74
2021/09/24 07:54:40;;;;;;;0.68;0.68;;;15.80;99.90;;;;;;4945095;28;20036;-75
2021/09/24 07:57:06;;;;;;;2.15;1.80;;;15.80;99.90;;;;;;4945516;28;20026;-75
2021/09/24 07:59:32;;;;;;;4.75;0.57;;;15.80;99.90;;;;;;4945918;28;20023;-75
2021/09/24 08:01:58;;;;;;;2.75;0.52;;;15.90;99.90;;;;;;4924214;28;20504;-75
2021/09/24 08:04:23;;;;;;;0.10;0.10;;;16.10;99.90;;;;;;4957587;28;20031;-75
2021/09/24 08:06:49;;;;;;;0.82;0.82;;;16.20;99.90;;;;;;4962030;28;20027;-75
2021/09/24 08:09:15;;;;;;;4.85;2.00;;;16.10;99.90;;;;;;4957742;28;20030;-75
2021/09/24 08:11:41;;;;;;;1.23;1.23;;;16.10;99.90;;;;;;4935353;29;20101;-75
2021/09/24 08:14:07;;;;;;;0.10;0.10;;;16.20;99.90;;;;;;4952702;28;20035;-75
2021/09/24 08:16:33;;;;;;;0.20;0.20;;;16.30;99.90;;;;;;4943216;28;20030;-75
2021/09/24 08:18:58;;;;;;;0.20;0.20;;;16.50;99.90;;;;;;4958603;28;20368;-75
2021/09/24 08:21:24;;;;;;;3.55;0.88;;;16.70;99.90;;;;;;4928884;29;20027;-75
2021/09/24 08:23:54;;;;;;;0.30;0.30;;;16.80;99.90;;;;;;4963279;28;20027;-75
2021/09/24 08:26:22;;;;;;;0.10;0.10;;;16.80;99.90;;;;;;4943347;28;20074;-75
2021/09/24 08:28:47;;;;;;;0.73;0.73;;;16.80;99.90;;;;;;4956681;28;20031;-75
2021/09/24 08:31:13;;;;;;;0.10;0.10;;;16.80;99.90;;;;;;4948897;29;20053;-75
2021/09/24 08:33:39;;;;;;;0.10;0.10;;;16.90;99.90;;;;;;4965644;28;20098;-75
2021/09/24 08:36:05;;;;;;;0.57;0.40;;;17.00;99.90;;;;;;4944815;28;20034;-75
2021/09/24 08:38:31;;;;;;;1.15;0.82;;;16.90;99.90;;;;;;4946469;28;20034;-75
2021/09/24 08:40:56;;;;;;;1.80;0.93;;;16.70;99.90;;;;;;4963451;28;20027;-73
2021/09/24 08:43:22;;;;;;;3.25;1.42;;;16.70;99.90;;;;;;4959839;28;20030;-73
2021/09/24 08:45:48;;;;;;;2.55;1.95;;;16.80;99.90;;;;;;4939626;29;20025;-73
2021/09/24 08:48:15;;;;;;;0.10;0.10;;;16.70;99.90;;;;;;4960036;28;20035;-74
2021/09/24 08:50:42;;;;;;;0.17;0.17;;;16.80;99.90;;;;;;4966241;28;20522;-74
2021/09/24 08:53:11;;;;;;;0.55;0.43;;;17.10;99.90;;;;;;4961054;28;20022;-74
2021/09/24 08:55:38;;;;;;;1.15;0.68;;;17.00;99.90;;;;;;4953759;28;20438;-74
2021/09/24 08:58:05;;;;;;;2.50;2.20;;;16.90;99.90;;;;;;4956679;28;20035;-74
2021/09/24 09:00:32;;;;;;;12.35;4.88;;;17.10;99.90;;;;;;4953600;28;20082;-74
2021/09/24 09:03:10;;;;;;;1.25;0.77;;;17.00;99.90;;;;;;4948178;28;20026;-74
2021/09/24 09:05:44;;;;;;;0.30;0.20;;;16.90;99.90;;;;;;4947039;28;20027;-74
2021/09/24 09:08:13;;;;;;;0.10;0.10;;;16.90;99.90;;;;;;4964650;28;20027;-74
2021/09/24 09:10:41;;;;;;;0.10;0.10;;;17.00;99.90;;;;;;4957786;28;20031;-73
2021/09/24 09:13:08;;;;;;;0.20;0.20;;;17.00;99.90;;;;;;4935768;28;20427;-74
2021/09/24 09:15:35;;;;;;;0.10;0.10;;;17.10;99.90;;;;;;4971669;28;20045;-74
2021/09/24 09:18:01;;;;;;;0.10;0.10;;;17.30;99.90;;;;;;4956394;28;20034;-74
2021/09/24 09:20:31;;;;;;;0.20;0.20;;;17.70;99.90;;;;;;4965329;28;20031;-74
2021/09/24 09:23:00;;;;;;;5.32;1.77;;;18.20;99.90;;;;;;4948959;28;20028;-74
2021/09/24 09:25:35;;;;;;;0.40;0.40;;;18.60;98.40;;;;;;4943016;28;20027;-73
2021/09/24 09:28:04;;;;;;;1.23;0.63;;;18.90;97.60;;;;;;4965959;28;20030;-74
2021/09/24 09:30:32;;;;;;;2.65;1.35;;;19.40;95.60;;;;;;4966274;28;20427;-73
2021/09/24 09:33:11;;;;;;;0.10;0.10;;;19.60;94.40;;;;;;4948046;29;20026;-74
2021/09/24 09:35:53;;;;;;;0.95;0.95;;;20.30;93.90;;;;;;4938424;29;20035;-75
2021/09/24 09:38:26;;;;;;;0.10;0.10;;;20.80;92.10;;;;;;4958457;28;20082;-74
2021/09/24 09:40:59;;;;;;;0.93;0.65;;;21.30;88.80;;;;;;4959937;28;20070;-74
2021/09/24 09:43:34;;;;;;;0.88;0.68;;;21.90;86.50;;;;;;4961075;28;20034;-76
2021/09/24 09:46:06;;;;;;;0.35;0.20;;;21.80;82.90;;;;;;4945797;29;20074;-74
2021/09/24 09:48:32;;;;;;;0.08;0.08;;;21.80;83.60;;;;;;4951887;28;20027;-74
2021/09/24 09:50:58;;;;;;;0.68;0.38;;;21.70;83.50;;;;;;4951764;28;20494;-74
2021/09/24 09:53:24;;;;;;;0.10;0.10;;;21.80;82.60;;;;;;4964873;28;20034;-75
2021/09/24 09:55:57;;;;;;;0.20;0.20;;;22.00;81.00;;;;;;4943512;28;20044;-74
2021/09/24 09:58:26;;;;;;;0.00;0.00;;;21.70;82.30;;;;;;4956546;28;20059;-74
2021/09/24 10:00:52;;;;;;;3.83;1.38;;;21.90;80.90;;;;;;4954075;28;20031;-74
2021/09/24 10:03:25;;;;;;;0.65;0.30;;;22.30;78.00;;;;;;4963864;28;20419;-74
2021/09/24 10:05:51;;;;;;;2.28;1.60;;;21.70;78.90;;;;;;4963600;28;20042;-75
2021/09/24 10:08:24;;;;;;;3.70;1.25;;;21.40;80.00;;;;;;4964308;28;20023;-74
2021/09/24 10:11:02;;;;;;;0.73;0.70;;;21.80;80.30;;;;;;4959937;28;20467;-74
2021/09/24 10:13:48;;;;;;;0.60;0.60;;;21.40;78.80;;;;;;4959491;28;20118;-74
2021/09/24 10:16:15;;;;;;;0.10;0.10;;;20.40;83.80;;;;;;4963582;28;20039;-75
2021/09/24 10:18:41;;;;;;;0.10;0.10;;;21.40;82.70;;;;;;4965239;28;20070;-75
2021/09/24 10:21:06;;;;;;;2.47;1.98;;;22.30;78.90;;;;;;4961622;28;20023;-74
2021/09/24 10:23:32;;;;;;;0.20;0.20;;;22.40;76.30;;;;;;4946801;28;20031;-74
2021/09/24 10:26:04;;;;;;;0.05;0.05;;;22.10;77.50;;;;;;4960221;28;20031;-74
2021/09/24 10:28:34;;;;;;;0.43;0.43;;;22.70;75.40;;;;;;4961909;28;20037;-74
2021/09/24 10:31:01;;;;;;;3.47;2.05;;;23.60;73.10;;;;;;4969047;28;20089;-75
2021/09/24 10:33:45;;;;;;;0.80;0.63;;;24.00;68.90;;;;;;4947641;29;20527;-74
2021/09/24 10:36:31;;;;;;;3.05;1.55;;;24.00;69.60;;;;;;4967131;28;20026;-74
2021/09/24 10:38:56;;;;;;;0.93;0.93;;;24.20;67.00;;;;;;4933891;28;20475;-74
2021/09/24 10:41:22;;;;;;;0.00;0.00;;;24.20;67.90;;;;;;4963673;28;20073;-74
2021/09/24 10:43:50;;;;;;;0.38;0.38;;;24.20;67.80;;;;;;4963979;28;20041;-74
2021/09/24 10:46:29;;;;;;;0.00;0.00;;;24.50;66.60;;;;;;4955478;28;20035;-75
2021/09/24 10:49:18;;;;;;;0.85;0.80;;;24.90;65.60;;;;;;4964016;28;20471;-74
2021/09/24 10:52:08;;;;;;;0.70;0.70;;;25.40;63.20;;;;;;4960501;28;20030;-75
2021/09/24 10:54:59;;;;;;;0.10;0.10;;;25.70;61.50;;;;;;4958685;28;20037;-74
2021/09/24 10:57:47;;;;;;;7.00;3.47;;;24.80;64.50;;;;;;4946235;28;20050;-74
2021/09/24 11:00:24;;;;;;;0.73;0.60;;;24.70;62.70;;;;;;4928554;29;20501;-74
2021/09/24 11:03:14;;;;;;;0.15;0.15;;;24.30;66.70;;;;;;4955721;28;20058;-74
2021/09/24 11:05:54;;;;;;;0.10;0.10;;;25.30;63.10;;;;;;4970222;28;20391;-74
2021/09/24 11:08:32;;;;;;;0.10;0.10;;;25.50;61.50;;;;;;4946924;28;20030;-74
2021/09/24 11:11:05;;;;;;;1.38;1.23;;;25.90;59.50;;;;;;4941998;28;20030;-74
2021/09/24 11:13:33;;;;;;;0.80;0.50;;;25.60;60.00;;;;;;4966120;28;20597;-74
2021/09/24 11:16:01;;;;;;;0.90;0.25;;;25.10;61.60;;;;;;4944284;28;20046;-75
2021/09/24 11:18:50;;;;;;;0.45;0.25;;;25.60;61.00;;;;;;4959323;28;20027;-74
2021/09/24 11:21:16;;;;;;;2.15;0.77;;;26.10;60.00;;;;;;4968868;28;20041;-74
2021/09/24 11:23:43;;;;;;;5.57;1.85;;;26.50;58.60;;;;;;4968407;28;20023;-74
2021/09/24 11:26:11;;;;;;;0.00;0.00;;;26.70;57.00;;;;;;4957758;28;20051;-73
2021/09/24 11:28:37;;;;;;;0.10;0.10;;;25.90;58.30;;;;;;4955612;28;20038;-74
2021/09/24 11:31:03;;;;;;;0.40;0.40;;;26.40;58.70;;;;;;4969197;28;20062;-75
2021/09/24 11:33:41;;;;;;;0.88;0.88;;;26.60;57.40;;;;;;4962954;28;20027;-75
2021/09/24 11:36:07;;;;;;;0.88;0.57;;;26.90;57.10;;;;;;4964034;28;20058;-75
2021/09/24 11:38:33;;;;;;;0.68;0.63;;;27.60;56.10;;;;;;4971027;28;20117;-74
2021/09/24 11:40:59;;;;;;;0.20;0.20;;;27.40;54.90;;;;;;4959002;28;20042;-74
2021/09/24 11:43:38;;;;;;;0.75;0.55;;;26.70;56.10;;;;;;4942783;28;20082;-74
2021/09/24 11:46:18;;;;;;;0.43;0.43;;;26.50;55.70;;;;;;4949659;28;20294;-74
2021/09/24 11:48:44;;;;;;;0.75;0.40;;;25.90;58.00;;;;;;4958184;28;20034;-74
2021/09/24 11:51:13;;;;;;;0.00;0.00;;;26.30;57.90;;;;;;4960687;28;20035;-74
2021/09/24 11:54:05;;;;;;;0.90;0.85;;;26.20;57.40;;;;;;4968106;28;20126;-74
2021/09/24 11:56:36;;;;;;;0.38;0.38;;;25.90;57.80;;;;;;4963571;28;20039;-74
2021/09/24 11:59:07;;;;;;;0.15;0.15;;;25.80;59.20;;;;;;4954164;28;20074;-74
2021/09/24 12:01:33;;;;;;;1.03;0.63;;;26.10;58.90;;;;;;4956962;28;20033;-75
2021/09/24 12:04:00;;;;;;;0.05;0.05;;;26.90;57.50;;;;;;4945986;28;20503;-75
2021/09/24 12:06:33;;;;;;;0.00;0.00;;;27.20;56.80;;;;;;4965672;28;20552;-75
2021/09/24 12:09:08;;;;;;;1.13;0.55;;;27.10;56.90;;;;;;4960287;28;20031;-75
2021/09/24 12:11:41;;;;;;;0.03;0.03;;;27.00;56.30;;;;;;4962560;28;20027;-74
2021/09/24 12:14:08;;;;;;;0.03;0.03;;;27.20;55.80;;;;;;4944653;28;20050;-75
2021/09/24 12:16:42;;;;;;;1.23;1.02;;;27.50;55.20;;;;;;4942375;28;20182;-75
2021/09/24 12:19:09;;;;;;;0.38;0.38;;;26.80;55.30;;;;;;4954654;28;20070;-75
2021/09/24 12:21:37;;;;;;;4.10;0.82;;;26.80;56.30;;;;;;4961871;28;20181;-75
2021/09/24 12:24:29;;;;;;;2.92;0.80;;;26.30;56.90;;;;;;4944720;28;20474;-75
2021/09/24 12:27:27;;;;;;;9.43;3.53;;;26.00;57.80;;;;;;4950678;28;20098;-75
2021/09/24 12:29:53;;;;;;;0.03;0.03;;;24.80;60.90;;;;;;4943842;28;20062;-75
2021/09/24 12:32:21;;;;;;;0.20;0.20;;;25.40;60.50;;;;;;4964073;28;20042;-76
2021/09/24 12:34:50;;;;;;;0.00;0.00;;;25.60;58.80;;;;;;4964750;28;20109;-75
2021/09/24 12:37:31;;;;;;;0.50;0.50;;;25.60;59.80;;;;;;4962267;28;20042;-75
2021/09/24 12:39:59;;;;;;;0.10;0.10;;;25.70;59.70;;;;;;4959244;28;20110;-75
2021/09/24 12:42:34;;;;;;;36.45;11.45;;;25.40;59.20;;;;;;4951799;28;20037;-75
2021/09/24 12:45:01;;;;;;;0.20;0.20;;;25.40;59.70;;;;;;4957889;28;20032;-75
2021/09/24 12:47:30;;;;;;;1.50;1.02;;;25.30;59.30;;;;;;4971147;28;20037;-75
2021/09/24 12:49:59;;;;;;;0.10;0.10;;;25.10;59.30;;;;;;4971675;28;20559;-75
2021/09/24 12:52:27;;;;;;;0.65;0.65;;;24.90;60.30;;;;;;4963180;28;20463;-75
2021/09/24 12:54:53;;;;;;;1.85;0.38;;;24.90;60.80;;;;;;4970427;28;20027;-75